Orchid, Florida
Current Conditions -  °F | °C
As of 11:53 AM on Monday 22 Dec 2014 (Local Time) from KVRB Reporting Station
Few Clouds Few Clouds  
Wind Chill: 81°   Ceiling: Unl
Heat Index: 82°   Visibility: 10mi
Dew Point: 63°   Wind: 15mph
Humidity: 54%   Direction: 150°SSE
Pressure: 30.01"   Gusts: NA
Location:  27.7066°N, 80.3826°W
Report Text: KVRB 221653Z 15013KT 10SM FEW100 27/17 A3001 RMK AO2 SLP160 T02720172
Loading
Personal Weather Stations






























Interactive Weather Map New forecast layout! Learn more

10-Day Weather Forecast

Advertisements
Track Severe Weather on mobile